Portada
METAR-TAF:

METAR-TAF

Aeropuertos :

Elkhart Municipal Airport

Elkhart, Indiana, Estados Unidos

latitud: 41-43N, longitud: 086-00W, altitud: 237 m

Observación

El informe se hizo hace 26 minutos, a las 20:15 UTC
Viento 6 kt del sur-suroeste
Temperatura 32°C
Humedad 46%
Presión 1023 hPa
Visibilidad: 12.9 km
Escasas nubes a una altura de 38000 ft

METAR: KEKM 192015Z 20006KT 8SM FEW380 32/19 A3022 RMK AO2 T03240191 $

Hora: 16:41 (20:41 UTC)


TAF: falta

Observaciones y pronósticos meteorológicos de más de 4000 aeropuertos (mensajes METAR y TAF).

Los puntos amarillos y rojos representan las estaciones disponibles.

Ponga el ratón en el punto deseado para ver el nombre de la estación.

Haga clic para ver las observaciones y los pronósticos meteorológicos.

Para cambiar el mapa : haga clic en los botones verdes con una cruz de color negro para hacer un zoom, en el botón verde con un guión para alejar o en las flechas verdes para mapas adyacentes.


METAR-TAF: